Terminal Aerodrome Forecast
Issued by NWS Wilmington, OH

Current Version | Previous Version | Graphics & Text | Print | Product List | Glossary On
Versions: 1 2 3 4 5 6 7 8 9 10 11 12 13 14 15 16 17 18 19 20 21 22 23
000
FTUS41 KILN 252000 AAA
TAFCVG
TAF AMD
KCVG 252055Z 2521/2624 13004KT P6SM VCSH SCT035
     FM260000 14004KT P6SM SKC
     FM260900 14004KT 4SM BR SKC
     FM261300 17004KT P6SM SKC
     FM261500 17004KT P6SM SCT030 SCT250=

USA.gov is the U.S. government's official web portal to all federal, state and local government web resources and services.